RJSA METAR and TAF | Updated Today

RJSA METAR

Aomori Airport

Observation time: 8:35 hr. ago

RJSA 291200Z 19007KT 9999 FEW030 13/12 Q1015

Need help? Read our tutorial on how to read METARs or read the parsed version below.

Aomori Airport (RJSA) METAR

  • Weather conditions on Thu, 29 Sep 2022 12:00:00 +0000 (8:35 hr. ago):
  • Present conditions: Dry
  • Clouds: A few at 914 meters
  • Visibility: Greater than 10 km
  • Wind: 190 degrees at 7 knots
  • Temperature: 13 celsius
  • Dew point: 12 celsius
  • Pressure: 1015 millibars
  • Remarks: None


Useful to know...

RJSA TAF

Aomori Airport

TAF RJSA 291706Z 2918/0100 20004KT 9999 FEW030 BECMG 3000/3002 28010KT BECMG 3009/3012 20004KT
Observation time: 3:29 hr. ago
Need help? Read our tutorial on how to read TAFs or read the parsed version below.

Parsed version of TAF for Aomori Airport (RJSA)

  • From 29 September at 18:00 UTC, to day 01 of the month at 00:00 UTC
  • Clouds: A few at 914 meters
  • Visibility: Greater than 10 km
  • Wind: 200 degrees at 4
  • Expected to arise soon, from 30 September at 00:00 UTC, to day 30 of the month at 02:00 UTC
  • Wind: 280 degrees at 10
  • Expected to arise soon, from 30 September at 09:00 UTC, to day 30 of the month at 12:00 UTC
  • Wind: 200 degrees at 4